Time;durP1;ratioP1;P1;durP2;ratioP2;P2;SDS_P1;SDS_P2;PMS_P1;PMS_P2;Temp;Humidity;BMP_temperature;BMP_pressure;BME280_temperature;BME280_humidity;BME280_pressure;Samples;Min_cycle;Max_cycle;Signal;HPM_P1;HPM_P2
2023/12/12 00:02:00;;;;;;;553.47;529.97;;;8.50;99.90;;;;;;5033204;28;20450;-62
2023/12/12 00:04:28;;;;;;;588.83;563.00;;;8.50;99.90;;;;;;5033964;28;20454;-62
2023/12/12 00:06:55;;;;;;;600.37;573.97;;;8.50;99.90;;;;;;5034088;28;20481;-62
2023/12/12 00:09:22;;;;;;;637.07;608.53;;;8.50;99.90;;;;;;5033261;28;20484;-62
2023/12/12 00:11:49;;;;;;;659.40;629.60;;;8.40;99.90;;;;;;5033248;28;20483;-62
2023/12/12 00:14:16;;;;;;;695.60;664.33;;;8.50;99.90;;;;;;5033616;28;20461;-62
2023/12/12 00:16:43;;;;;;;688.93;657.47;;;8.50;99.90;;;;;;5033622;28;20452;-62
2023/12/12 00:19:10;;;;;;;658.80;628.43;;;8.40;99.90;;;;;;5033627;28;20454;-62
2023/12/12 00:21:38;;;;;;;624.60;596.23;;;8.40;99.90;;;;;;5033316;28;20454;-62
2023/12/12 00:24:05;;;;;;;607.87;581.17;;;8.40;99.90;;;;;;5033113;28;20834;-62
2023/12/12 00:26:32;;;;;;;626.60;598.63;;;8.40;99.90;;;;;;5033755;28;20543;-62
2023/12/12 00:28:59;;;;;;;625.97;597.10;;;8.30;99.90;;;;;;5033483;28;20484;-62
2023/12/12 00:31:26;;;;;;;677.80;646.90;;;8.20;99.90;;;;;;5033624;28;20480;-62
2023/12/12 00:33:53;;;;;;;685.07;652.27;;;8.20;99.90;;;;;;5032536;28;20834;-62
2023/12/12 00:36:19;;;;;;;697.60;665.37;;;8.20;99.90;;;;;;5033800;28;20819;-62
2023/12/12 00:38:48;;;;;;;695.10;662.60;;;8.20;99.90;;;;;;5033464;28;20947;-62
2023/12/12 00:41:15;;;;;;;690.27;657.80;;;8.20;99.90;;;;;;5033659;28;20460;-62
2023/12/12 00:43:42;;;;;;;681.27;648.80;;;8.20;99.90;;;;;;5032503;28;20454;-62
2023/12/12 00:46:11;;;;;;;706.40;671.30;;;8.20;99.90;;;;;;5033377;28;20452;-62
2023/12/12 00:48:37;;;;;;;674.03;641.10;;;8.20;99.90;;;;;;5033384;28;20449;-62
2023/12/12 00:51:08;;;;;;;647.13;616.53;;;8.10;99.90;;;;;;5033258;28;20476;-62
2023/12/12 00:53:34;;;;;;;677.17;645.47;;;8.10;99.90;;;;;;5032252;28;20450;-62
2023/12/12 00:56:04;;;;;;;732.97;695.07;;;8.00;99.90;;;;;;5033274;28;20958;-62
2023/12/12 00:58:30;;;;;;;727.23;690.30;;;8.00;99.90;;;;;;5033563;28;20450;-62
2023/12/12 01:00:57;;;;;;;703.83;668.37;;;8.10;99.90;;;;;;5033533;28;20478;-62
2023/12/12 01:03:24;;;;;;;703.20;668.70;;;8.10;99.90;;;;;;5032178;28;20930;-62
2023/12/12 01:05:51;;;;;;;716.17;680.40;;;8.00;99.90;;;;;;5033175;28;20968;-62
2023/12/12 01:08:18;;;;;;;729.57;692.67;;;8.00;99.90;;;;;;5033430;28;20447;-62
2023/12/12 01:10:45;;;;;;;761.53;722.13;;;7.90;99.90;;;;;;5033429;28;20455;-62
2023/12/12 01:13:13;;;;;;;795.77;753.37;;;7.80;99.90;;;;;;5032088;28;20520;-62
2023/12/12 01:15:40;;;;;;;807.80;763.60;;;7.80;99.90;;;;;;5033406;28;20451;-62
2023/12/12 01:18:06;;;;;;;840.23;793.80;;;7.60;99.90;;;;;;5033387;28;20474;-62
2023/12/12 01:20:33;;;;;;;891.80;841.10;;;7.50;99.90;;;;;;5035440;28;20450;-62
2023/12/12 01:23:00;;;;;;;906.43;853.03;;;7.40;99.90;;;;;;5035784;28;20949;-62
2023/12/12 01:25:27;;;;;;;935.43;880.27;;;7.30;99.90;;;;;;5037074;28;20874;-62
2023/12/12 01:27:54;;;;;;;950.37;892.17;;;7.20;99.90;;;;;;5036810;28;20448;-62
2023/12/12 01:30:22;;;;;;;948.70;889.57;;;7.20;99.90;;;;;;5036989;28;20447;-62
2023/12/12 01:32:49;;;;;;;968.23;907.03;;;7.10;99.90;;;;;;5035479;28;20482;-62
2023/12/12 01:35:16;;;;;;;965.90;903.47;;;7.10;99.90;;;;;;5036936;28;20560;-62
2023/12/12 01:37:43;;;;;;;972.27;909.87;;;7.10;99.90;;;;;;5037010;28;20955;-62
2023/12/12 01:40:10;;;;;;;971.23;905.87;;;7.10;99.90;;;;;;5036513;28;20543;-62
2023/12/12 01:42:37;;;;;;;981.40;916.43;;;7.20;99.90;;;;;;5035367;28;20452;-62
2023/12/12 01:45:05;;;;;;;973.27;906.97;;;7.20;99.90;;;;;;5036662;28;20531;-62
2023/12/12 01:47:33;;;;;;;974.83;907.37;;;7.20;99.90;;;;;;5036634;28;20458;-62
2023/12/12 01:50:00;;;;;;;978.40;908.20;;;7.30;99.90;;;;;;5036596;28;20524;-62
2023/12/12 01:52:28;;;;;;;973.17;904.53;;;7.30;99.90;;;;;;5035316;28;20489;-62
2023/12/12 01:54:55;;;;;;;976.80;906.60;;;7.30;99.90;;;;;;5036404;28;20455;-62
2023/12/12 01:57:22;;;;;;;976.33;906.33;;;7.40;99.90;;;;;;5036160;28;20455;-62
2023/12/12 01:59:49;;;;;;;981.30;913.10;;;7.40;99.90;;;;;;5036448;28;20859;-62
2023/12/12 02:02:18;;;;;;;985.53;916.37;;;7.40;99.90;;;;;;5035145;28;20454;-62
2023/12/12 02:04:47;;;;;;;979.97;912.43;;;7.40;99.90;;;;;;5035761;28;20559;-62
2023/12/12 02:07:14;;;;;;;973.70;906.87;;;7.40;99.90;;;;;;5036283;28;20482;-62
2023/12/12 02:09:42;;;;;;;981.17;914.37;;;7.40;99.90;;;;;;5036497;28;20551;-62
2023/12/12 02:12:09;;;;;;;971.40;906.77;;;7.40;99.90;;;;;;5035324;28;20476;-62
2023/12/12 02:14:37;;;;;;;966.27;901.27;;;7.30;99.90;;;;;;5036124;28;20454;-62
2023/12/12 02:17:04;;;;;;;965.97;901.00;;;7.30;99.90;;;;;;5036088;28;20455;-62
2023/12/12 02:19:31;;;;;;;968.73;904.53;;;7.30;99.90;;;;;;5035750;28;20459;-62
2023/12/12 02:21:59;;;;;;;967.07;903.00;;;7.20;99.90;;;;;;5035214;28;20451;-62
2023/12/12 02:24:26;;;;;;;974.27;909.13;;;7.20;99.90;;;;;;5035874;28;20455;-62
2023/12/12 02:26:53;;;;;;;979.07;912.57;;;7.10;99.90;;;;;;5035656;28;20459;-62
2023/12/12 02:29:20;;;;;;;976.23;908.67;;;7.10;99.90;;;;;;5035640;28;20975;-62
2023/12/12 02:31:47;;;;;;;986.87;917.97;;;7.10;99.90;;;;;;5034086;28;20506;-62
2023/12/12 02:34:14;;;;;;;984.20;915.77;;;7.10;99.90;;;;;;5035139;28;20459;-62
2023/12/12 02:36:40;;;;;;;981.57;912.77;;;7.10;99.90;;;;;;5035742;28;20454;-62
2023/12/12 02:39:11;;;;;;;986.10;916.60;;;7.10;99.90;;;;;;5035789;28;20959;-62
2023/12/12 02:41:37;;;;;;;985.67;915.77;;;7.00;99.90;;;;;;5034814;28;20491;-62
2023/12/12 02:44:05;;;;;;;990.10;919.30;;;7.00;99.90;;;;;;5034906;28;20452;-62
2023/12/12 02:46:32;;;;;;;996.20;922.20;;;7.00;99.90;;;;;;5035277;28;20451;-62
2023/12/12 02:48:59;;;;;;;998.70;923.97;;;7.10;99.90;;;;;;5035543;28;20451;-62
2023/12/12 02:51:26;;;;;;;998.17;922.40;;;7.00;99.90;;;;;;5035278;28;20822;-62
2023/12/12 02:53:52;;;;;;;1000.27;925.27;;;7.00;99.90;;;;;;5034319;28;20970;-62
2023/12/12 02:56:21;;;;;;;1005.23;929.30;;;6.90;99.90;;;;;;5035098;28;20459;-62
2023/12/12 02:58:47;;;;;;;1009.50;933.13;;;6.80;99.90;;;;;;5035276;28;20457;-62
2023/12/12 03:01:15;;;;;;;1009.50;932.97;;;6.70;99.90;;;;;;5035320;28;20474;-62
2023/12/12 03:03:41;;;;;;;1014.67;936.90;;;6.60;99.90;;;;;;5033828;28;20446;-62
2023/12/12 03:06:08;;;;;;;1005.10;927.13;;;6.60;99.90;;;;;;5035199;28;20457;-62
2023/12/12 03:08:35;;;;;;;1005.87;927.20;;;6.60;99.90;;;;;;5035179;28;20450;-62
2023/12/12 03:11:02;;;;;;;1013.30;934.20;;;6.60;99.90;;;;;;5035328;28;20452;-62
2023/12/12 03:13:30;;;;;;;1012.30;930.33;;;6.50;99.90;;;;;;5033989;28;20479;-62
2023/12/12 03:15:57;;;;;;;1010.97;926.20;;;6.50;99.90;;;;;;5034986;28;20451;-62
2023/12/12 03:18:24;;;;;;;1000.50;919.60;;;6.60;99.90;;;;;;5034958;28;20566;-62
2023/12/12 03:20:51;;;;;;;1006.30;923.73;;;6.50;99.90;;;;;;5034922;28;20461;-62
2023/12/12 03:23:18;;;;;;;1015.63;933.47;;;6.50;99.90;;;;;;5033426;28;20826;-62
2023/12/12 03:25:45;;;;;;;1014.47;931.03;;;6.50;99.90;;;;;;5034530;28;20453;-62
2023/12/12 03:28:12;;;;;;;1017.83;932.67;;;6.40;99.90;;;;;;5034794;28;20954;-62
2023/12/12 03:30:40;;;;;;;1010.63;926.10;;;6.40;99.90;;;;;;5034726;28;20454;-62
2023/12/12 03:33:07;;;;;;;999.17;912.60;;;6.30;99.90;;;;;;5033144;28;20489;-62
2023/12/12 03:35:34;;;;;;;1014.07;928.00;;;6.40;99.90;;;;;;5034636;28;20556;-62
2023/12/12 03:38:01;;;;;;;1008.03;919.77;;;6.30;99.90;;;;;;5034298;28;20461;-62
2023/12/12 03:40:28;;;;;;;1001.87;913.10;;;6.40;99.90;;;;;;5034577;28;20882;-62
2023/12/12 03:42:54;;;;;;;1006.77;919.03;;;6.50;99.90;;;;;;5033075;28;20451;-62
2023/12/12 03:45:21;;;;;;;1011.10;920.87;;;6.40;99.90;;;;;;5034484;28;20813;-62
2023/12/12 03:47:50;;;;;;;1000.70;908.30;;;6.50;99.90;;;;;;5034668;28;20534;-62
2023/12/12 03:50:16;;;;;;;982.80;890.50;;;6.60;99.90;;;;;;5034437;28;20449;-62
2023/12/12 03:52:43;;;;;;;993.53;903.37;;;6.70;99.90;;;;;;5033177;28;20871;-62
2023/12/12 03:55:10;;;;;;;996.30;906.80;;;6.80;99.90;;;;;;5034014;28;20456;-62
2023/12/12 03:57:37;;;;;;;998.30;908.67;;;6.80;99.90;;;;;;5033845;28;20460;-62
2023/12/12 04:00:07;;;;;;;1002.20;912.43;;;6.80;99.90;;;;;;5034222;28;20457;-62
2023/12/12 04:02:33;;;;;;;1000.60;908.33;;;6.80;99.90;;;;;;5033210;28;20447;-62
2023/12/12 04:05:02;;;;;;;1001.80;911.53;;;7.00;99.90;;;;;;5034307;28;20484;-62
2023/12/12 04:07:29;;;;;;;1004.57;916.20;;;7.10;99.90;;;;;;5034111;28;20868;-62
2023/12/12 04:09:56;;;;;;;1011.23;926.30;;;7.10;99.90;;;;;;5034048;28;20453;-62
2023/12/12 04:12:24;;;;;;;1015.73;929.87;;;7.10;99.90;;;;;;5032892;28;20562;-62
2023/12/12 04:14:51;;;;;;;1017.97;933.27;;;7.10;99.90;;;;;;5033818;28;20459;-62
2023/12/12 04:17:17;;;;;;;1011.00;924.67;;;7.00;99.90;;;;;;5033993;28;20455;-67
2023/12/12 04:19:44;;;;;;;1011.80;923.70;;;7.00;99.90;;;;;;5034216;28;20550;-67
2023/12/12 04:22:13;;;;;;;994.97;904.33;;;7.00;99.90;;;;;;5032684;28;20452;-67
2023/12/12 04:24:40;;;;;;;996.17;908.00;;;7.10;99.90;;;;;;5033574;28;20992;-67
2023/12/12 04:27:06;;;;;;;991.90;905.60;;;7.20;99.90;;;;;;5034525;28;20478;-67
2023/12/12 04:29:33;;;;;;;1007.40;922.73;;;7.30;99.90;;;;;;5033486;28;20459;-67
2023/12/12 04:32:00;;;;;;;1018.03;937.50;;;7.20;99.90;;;;;;5032670;28;20448;-67
2023/12/12 04:34:27;;;;;;;1018.27;937.80;;;7.10;99.90;;;;;;5032901;28;20465;-67
2023/12/12 04:36:54;;;;;;;1015.83;936.43;;;7.00;99.90;;;;;;5034241;28;20463;-67
2023/12/12 04:39:22;;;;;;;1011.10;932.10;;;7.00;99.90;;;;;;5033755;28;20883;-67
2023/12/12 04:41:50;;;;;;;1013.07;932.67;;;6.90;99.90;;;;;;5033174;28;20474;-67
2023/12/12 04:44:17;;;;;;;1012.57;933.30;;;7.00;99.90;;;;;;5033419;28;20455;-67
2023/12/12 04:46:44;;;;;;;1011.57;932.47;;;6.90;99.90;;;;;;5033313;28;20451;-67
2023/12/12 04:49:11;;;;;;;1009.30;931.67;;;6.90;99.90;;;;;;5033650;28;20452;-67
2023/12/12 04:51:38;;;;;;;1016.03;938.37;;;6.70;99.90;;;;;;5033042;28;20809;-67
2023/12/12 04:54:05;;;;;;;1009.63;929.43;;;6.50;99.90;;;;;;5033106;28;20581;-67
2023/12/12 04:56:33;;;;;;;1030.30;948.90;;;6.50;99.90;;;;;;5036279;28;20454;-67
2023/12/12 04:59:00;;;;;;;1021.60;938.50;;;6.40;99.90;;;;;;5037577;28;20447;-67
2023/12/12 05:01:27;;;;;;;1012.47;928.47;;;6.30;99.90;;;;;;5037416;28;20879;-67
2023/12/12 05:03:54;;;;;;;1009.97;926.27;;;6.30;99.90;;;;;;5036275;28;20451;-67
2023/12/12 05:06:21;;;;;;;989.03;905.17;;;6.30;99.90;;;;;;5037490;28;20489;-67
2023/12/12 05:08:48;;;;;;;993.33;908.63;;;6.20;99.90;;;;;;5037470;28;20548;-67
2023/12/12 05:11:15;;;;;;;988.70;902.07;;;6.10;99.90;;;;;;5037367;28;20537;-67
2023/12/12 05:13:43;;;;;;;991.97;904.63;;;6.20;99.90;;;;;;5034733;28;20480;-67
2023/12/12 05:16:10;;;;;;;992.90;904.00;;;6.30;99.90;;;;;;5017070;28;20524;-67
2023/12/12 05:18:37;;;;;;;987.07;898.17;;;6.40;99.90;;;;;;5017464;28;20460;-67
2023/12/12 05:21:05;;;;;;;971.73;881.23;;;6.50;99.90;;;;;;5017668;28;20981;-67
2023/12/12 05:23:32;;;;;;;976.60;887.60;;;6.50;99.90;;;;;;5015868;28;20450;-67
2023/12/12 05:25:58;;;;;;;974.57;887.70;;;6.60;99.90;;;;;;5017440;28;20538;-62
2023/12/12 05:28:26;;;;;;;973.37;887.67;;;6.70;99.90;;;;;;5016931;28;20541;-62
2023/12/12 05:30:54;;;;;;;968.37;885.47;;;6.70;99.90;;;;;;5017176;28;20458;-62
2023/12/12 05:33:21;;;;;;;978.60;896.20;;;6.70;99.90;;;;;;5014743;28;20836;-62
2023/12/12 05:35:49;;;;;;;983.20;901.70;;;6.70;99.90;;;;;;5015154;28;20481;-62
2023/12/12 05:38:16;;;;;;;973.80;893.80;;;6.80;99.90;;;;;;5014678;28;20456;-62
2023/12/12 05:40:43;;;;;;;988.07;909.10;;;6.80;99.90;;;;;;5014773;28;20455;-62
2023/12/12 05:43:10;;;;;;;989.10;910.70;;;6.80;99.90;;;;;;5014270;28;20522;-62
2023/12/12 05:45:37;;;;;;;976.37;899.17;;;6.80;99.90;;;;;;5014494;28;20543;-62
2023/12/12 05:48:06;;;;;;;976.83;900.53;;;6.80;99.90;;;;;;5014551;28;20461;-62
2023/12/12 05:50:33;;;;;;;972.30;897.50;;;6.80;99.90;;;;;;5014744;28;20458;-62
2023/12/12 05:53:00;;;;;;;971.97;898.73;;;6.80;99.90;;;;;;5014225;28;20484;-62
2023/12/12 05:55:28;;;;;;;960.03;888.37;;;6.80;99.90;;;;;;5014613;28;20859;-62
2023/12/12 05:57:54;;;;;;;968.50;896.70;;;6.70;99.90;;;;;;5013796;28;20457;-62
2023/12/12 06:00:21;;;;;;;962.07;890.57;;;6.70;99.90;;;;;;5013853;28;20965;-62
2023/12/12 06:02:49;;;;;;;960.27;890.30;;;6.70;99.90;;;;;;5013978;28;20452;-62
2023/12/12 06:05:17;;;;;;;953.53;884.00;;;6.70;99.90;;;;;;5014416;28;20459;-62
2023/12/12 06:07:44;;;;;;;956.67;886.97;;;6.60;99.90;;;;;;5013283;28;20464;-62
2023/12/12 06:10:11;;;;;;;960.17;888.70;;;6.60;99.90;;;;;;5014218;28;20936;-62
2023/12/12 06:12:38;;;;;;;962.50;889.10;;;6.70;99.90;;;;;;5013569;28;20502;-62
2023/12/12 06:15:07;;;;;;;952.07;878.37;;;6.70;99.90;;;;;;5014158;28;20948;-62
2023/12/12 06:17:34;;;;;;;945.83;870.47;;;6.80;99.90;;;;;;5013798;28;20961;-62
2023/12/12 06:20:01;;;;;;;945.87;870.60;;;6.80;99.90;;;;;;5013940;28;20461;-62
2023/12/12 06:22:30;;;;;;;945.07;869.87;;;6.90;99.90;;;;;;5012474;28;20830;-62
2023/12/12 06:24:56;;;;;;;955.80;881.30;;;6.90;99.90;;;;;;5013383;28;20819;-62
2023/12/12 06:27:23;;;;;;;944.60;871.10;;;6.90;99.90;;;;;;5013436;28;21025;-62
2023/12/12 06:29:50;;;;;;;923.83;852.27;;;6.90;99.90;;;;;;5013849;28;20454;-62
2023/12/12 06:32:17;;;;;;;923.27;852.67;;;6.90;99.90;;;;;;5013641;28;20452;-63
2023/12/12 06:34:45;;;;;;;933.00;861.60;;;7.00;99.90;;;;;;5013800;28;20915;-62
2023/12/12 06:37:12;;;;;;;923.27;852.20;;;7.00;99.90;;;;;;5013098;28;20530;-62
2023/12/12 06:39:41;;;;;;;937.10;866.90;;;7.00;99.90;;;;;;5014596;28;20453;-65
2023/12/12 06:42:08;;;;;;;925.23;853.73;;;7.00;99.90;;;;;;5013599;28;21008;-67
2023/12/12 06:44:35;;;;;;;924.10;853.90;;;7.10;99.90;;;;;;5013702;28;20452;-67
2023/12/12 06:47:02;;;;;;;889.87;828.67;;;7.30;99.90;;;;;;5013356;28;20510;-67
2023/12/12 06:49:29;;;;;;;836.27;780.80;;;7.50;99.90;;;;;;5013356;28;20553;-67
2023/12/12 06:51:56;;;;;;;765.50;716.50;;;7.70;99.90;;;;;;5013097;28;20452;-67
2023/12/12 06:54:23;;;;;;;770.60;721.83;;;7.90;99.90;;;;;;5013210;28;20483;-67
2023/12/12 06:56:51;;;;;;;775.07;726.20;;;7.90;99.90;;;;;;5013210;28;20511;-67
2023/12/12 06:59:18;;;;;;;776.70;729.20;;;7.90;99.90;;;;;;5013360;28;20552;-67
2023/12/12 07:01:45;;;;;;;762.60;716.00;;;7.90;99.90;;;;;;5013192;28;20453;-67
2023/12/12 07:04:12;;;;;;;711.00;670.10;;;7.80;99.90;;;;;;5012251;28;20488;-67
2023/12/12 07:06:39;;;;;;;673.90;636.97;;;7.90;99.90;;;;;;5011935;28;20583;-67
2023/12/12 07:09:05;;;;;;;648.97;613.63;;;8.00;99.90;;;;;;5012535;28;20460;-67
2023/12/12 07:11:32;;;;;;;625.40;592.13;;;8.00;99.90;;;;;;5011732;28;20965;-67
2023/12/12 07:14:00;;;;;;;560.87;532.33;;;8.00;99.90;;;;;;5012367;28;20481;-68
2023/12/12 07:16:27;;;;;;;554.43;525.23;;;8.10;99.90;;;;;;5012373;28;20485;-66
2023/12/12 07:18:55;;;;;;;520.40;493.70;;;8.10;99.90;;;;;;5011401;28;20824;-67
2023/12/12 07:21:22;;;;;;;495.87;471.47;;;8.10;99.90;;;;;;5010884;28;21040;-67
2023/12/12 07:23:51;;;;;;;490.60;467.27;;;8.10;99.90;;;;;;5010355;28;20820;-67
2023/12/12 07:26:21;;;;;;;457.00;435.57;;;8.20;99.90;;;;;;5011816;28;20485;-69
2023/12/12 07:28:47;;;;;;;440.37;419.60;;;8.20;99.90;;;;;;5012700;28;20476;-69
2023/12/12 07:31:16;;;;;;;429.80;409.37;;;8.20;99.90;;;;;;5012741;28;20940;-68
2023/12/12 07:33:42;;;;;;;449.50;428.50;;;8.20;99.90;;;;;;5011950;28;20487;-67
2023/12/12 07:36:10;;;;;;;468.90;446.80;;;8.20;99.90;;;;;;5012762;28;20539;-69
2023/12/12 07:38:36;;;;;;;509.27;484.63;;;8.10;99.90;;;;;;5012472;28;20456;-67
2023/12/12 07:41:04;;;;;;;544.93;518.97;;;8.10;99.90;;;;;;5012136;28;20540;-67
2023/12/12 07:43:31;;;;;;;547.27;520.57;;;8.10;99.90;;;;;;5011875;28;20942;-66
2023/12/12 07:45:58;;;;;;;557.33;529.63;;;8.10;99.90;;;;;;5012182;28;20455;-67
2023/12/12 07:48:26;;;;;;;562.77;535.17;;;8.10;99.90;;;;;;5012356;28;20881;-66
2023/12/12 07:50:55;;;;;;;548.00;521.60;;;8.10;99.90;;;;;;5012492;28;20449;-67
2023/12/12 07:53:22;;;;;;;539.20;513.80;;;8.10;99.90;;;;;;5012096;28;20542;-68
2023/12/12 07:55:49;;;;;;;525.47;500.37;;;8.10;99.90;;;;;;5011946;28;20459;-68
2023/12/12 07:58:17;;;;;;;464.83;442.90;;;8.10;99.90;;;;;;5011867;28;20495;-67
2023/12/12 08:00:47;;;;;;;427.30;406.53;;;8.20;99.90;;;;;;5012069;28;20531;-67
2023/12/12 08:03:14;;;;;;;420.33;401.83;;;8.20;99.90;;;;;;5011714;28;20459;-67
2023/12/12 08:05:43;;;;;;;407.47;388.43;;;8.20;99.90;;;;;;5012591;28;20515;-67
2023/12/12 08:08:10;;;;;;;386.80;370.70;;;8.20;99.90;;;;;;5011995;28;21011;-67
2023/12/12 08:10:37;;;;;;;363.50;347.90;;;8.30;99.90;;;;;;5011980;28;20454;-67
2023/12/12 08:13:04;;;;;;;355.13;340.33;;;8.30;99.90;;;;;;5011759;28;20575;-69
2023/12/12 08:15:31;;;;;;;357.77;343.07;;;8.30;99.90;;;;;;5012146;28;20933;-71
2023/12/12 08:17:58;;;;;;;376.47;361.17;;;8.40;99.90;;;;;;5011899;28;20540;-67
2023/12/12 08:20:25;;;;;;;406.80;389.27;;;8.30;99.90;;;;;;5012532;28;20460;-68
2023/12/12 08:22:53;;;;;;;386.57;370.27;;;8.40;99.90;;;;;;5012035;28;20866;-67
2023/12/12 08:25:23;;;;;;;349.47;335.07;;;8.40;99.90;;;;;;5014090;28;20599;-67
2023/12/12 08:27:51;;;;;;;341.03;326.17;;;8.50;99.90;;;;;;5014002;28;20942;-66
2023/12/12 08:30:17;;;;;;;333.00;319.37;;;8.50;99.90;;;;;;5013103;28;20551;-67
2023/12/12 08:32:44;;;;;;;320.87;307.80;;;8.60;99.90;;;;;;5012087;28;20463;-66
2023/12/12 08:35:11;;;;;;;280.87;268.93;;;8.60;99.90;;;;;;5013973;28;20466;-66
2023/12/12 08:37:39;;;;;;;295.67;284.20;;;8.70;99.90;;;;;;5013746;28;20457;-66
2023/12/12 08:40:11;;;;;;;265.83;255.33;;;8.80;99.90;;;;;;5013996;28;20456;-66
2023/12/12 08:42:39;;;;;;;229.70;220.90;;;8.90;99.90;;;;;;5012365;28;20537;-65
2023/12/12 08:45:08;;;;;;;191.83;183.40;;;9.10;99.90;;;;;;5013989;28;20443;-65
2023/12/12 08:47:36;;;;;;;179.47;172.33;;;9.20;99.90;;;;;;5013941;28;20461;-65
2023/12/12 08:50:03;;;;;;;181.10;174.07;;;9.30;99.90;;;;;;5013920;28;20486;-65
2023/12/12 08:52:32;;;;;;;157.30;150.67;;;9.30;99.90;;;;;;5012479;28;20460;-65
2023/12/12 08:54:58;;;;;;;189.07;181.53;;;9.40;99.90;;;;;;5013517;28;20562;-65
2023/12/12 08:57:27;;;;;;;188.93;181.87;;;9.40;99.90;;;;;;5013866;28;20463;-66
2023/12/12 08:59:54;;;;;;;164.27;157.57;;;9.50;99.90;;;;;;5013481;28;20451;-66
2023/12/12 09:02:21;;;;;;;142.50;136.63;;;9.50;99.90;;;;;;5012659;28;20456;-65
2023/12/12 09:04:48;;;;;;;128.73;122.83;;;9.50;99.90;;;;;;5013337;28;20448;-65
2023/12/12 09:07:15;;;;;;;122.07;117.00;;;9.40;99.90;;;;;;5013478;28;20459;-65
2023/12/12 09:09:42;;;;;;;142.13;136.17;;;9.40;99.90;;;;;;5013707;28;20477;-64
2023/12/12 09:12:09;;;;;;;137.17;131.20;;;9.50;99.90;;;;;;5012544;28;21004;-64
2023/12/12 09:14:37;;;;;;;111.40;106.80;;;9.50;99.90;;;;;;5013551;28;20480;-64
2023/12/12 09:17:05;;;;;;;111.30;106.10;;;9.50;99.90;;;;;;5013677;28;20459;-64
2023/12/12 09:19:33;;;;;;;120.27;114.90;;;9.60;99.90;;;;;;5013669;28;20456;-64
2023/12/12 09:22:00;;;;;;;70.80;67.43;;;9.80;99.90;;;;;;5012867;28;20543;-64
2023/12/12 09:24:28;;;;;;;43.13;39.07;;;9.90;99.90;;;;;;5012672;28;20538;-64
2023/12/12 09:26:55;;;;;;;19.50;17.50;;;9.90;99.90;;;;;;5013294;28;20546;-64
2023/12/12 09:29:23;;;;;;;20.47;18.63;;;9.90;99.90;;;;;;5013731;28;20455;-64
2023/12/12 09:31:53;;;;;;;32.80;29.60;;;9.90;99.90;;;;;;5012926;28;20452;-64
2023/12/12 09:34:20;;;;;;;32.73;30.17;;;10.10;99.90;;;;;;5012455;28;20484;-64
2023/12/12 09:36:47;;;;;;;31.53;29.60;;;10.10;99.90;;;;;;5013465;28;20539;-64
2023/12/12 09:39:15;;;;;;;27.70;21.97;;;10.20;99.90;;;;;;5013500;28;20462;-65
2023/12/12 09:41:46;;;;;;;22.30;20.40;;;10.30;99.90;;;;;;5013925;28;20492;-64
2023/12/12 09:44:16;;;;;;;24.93;22.13;;;10.30;99.90;;;;;;5016447;28;20848;-64
2023/12/12 09:46:44;;;;;;;32.77;30.07;;;10.20;99.90;;;;;;5016573;28;20451;-64
2023/12/12 09:49:13;;;;;;;30.90;28.90;;;10.10;99.90;;;;;;5016878;28;20454;-64
2023/12/12 09:51:42;;;;;;;28.73;26.40;;;10.20;99.90;;;;;;5016264;28;20447;-63
2023/12/12 09:54:11;;;;;;;38.20;35.40;;;10.10;99.90;;;;;;5015951;28;20475;-63
2023/12/12 09:56:38;;;;;;;40.63;37.40;;;10.20;99.90;;;;;;5016767;28;20448;-64
2023/12/12 09:59:09;;;;;;;44.20;40.60;;;10.20;99.90;;;;;;5016914;28;20463;-64
2023/12/12 10:01:36;;;;;;;47.13;44.00;;;10.20;99.90;;;;;;5016469;28;20776;-63
2023/12/12 10:04:07;;;;;;;38.17;35.87;;;10.20;99.90;;;;;;5015509;28;20445;-64
2023/12/12 10:06:42;;;;;;;24.20;22.20;;;10.30;99.90;;;;;;5017735;28;20431;-64
2023/12/12 10:09:09;;;;;;;21.83;19.77;;;10.20;99.90;;;;;;5016458;28;20461;-64
2023/12/12 10:11:36;;;;;;;30.80;28.40;;;10.20;99.90;;;;;;5016213;28;20456;-64
2023/12/12 10:14:03;;;;;;;23.37;21.40;;;10.20;99.90;;;;;;5015483;28;20988;-64
2023/12/12 10:16:33;;;;;;;32.20;29.70;;;10.20;99.90;;;;;;5016226;28;20453;-64
2023/12/12 10:19:01;;;;;;;32.43;29.97;;;10.30;99.90;;;;;;5016377;28;20459;-62
2023/12/12 10:21:28;;;;;;;29.47;25.80;;;10.40;99.90;;;;;;5015898;28;20485;-63
2023/12/12 10:24:01;;;;;;;23.53;21.50;;;10.40;99.90;;;;;;5013720;28;20502;-63
2023/12/12 10:26:29;;;;;;;27.13;24.63;;;10.40;99.90;;;;;;5013843;28;20453;-64
2023/12/12 10:28:58;;;;;;;27.47;24.63;;;10.70;99.90;;;;;;5013877;28;20545;-63
2023/12/12 10:31:25;;;;;;;31.43;21.43;;;10.70;99.90;;;;;;5016425;28;20462;-65
2023/12/12 10:33:52;;;;;;;20.00;16.40;;;10.90;99.90;;;;;;5013926;28;20832;-64
2023/12/12 10:36:19;;;;;;;15.10;13.57;;;10.90;99.90;;;;;;5016076;28;20480;-65
2023/12/12 10:38:45;;;;;;;19.03;15.47;;;10.80;99.90;;;;;;5016032;28;20543;-64
2023/12/12 10:41:15;;;;;;;31.27;28.35;;;10.90;99.90;;;;;;5015119;28;20454;-63
2023/12/12 10:43:43;;;;;;;28.70;22.57;;;10.90;99.90;;;;;;5014670;28;20245;-64
2023/12/12 10:46:12;;;;;;;23.00;19.27;;;10.90;99.90;;;;;;5015361;28;20445;-63
2023/12/12 10:48:46;;;;;;;25.93;23.40;;;10.80;99.90;;;;;;5015841;28;20456;-64
2023/12/12 10:51:14;;;;;;;31.17;28.17;;;10.60;99.90;;;;;;5015637;28;20441;-64
2023/12/12 10:53:43;;;;;;;32.93;30.53;;;10.60;99.90;;;;;;5013509;28;20492;-64
2023/12/12 10:56:11;;;;;;;41.60;38.80;;;10.50;99.90;;;;;;5015920;28;20469;-64
2023/12/12 10:58:41;;;;;;;64.37;61.07;;;10.30;99.90;;;;;;5015297;28;20544;-64
2023/12/12 11:01:10;;;;;;;138.67;129.87;;;10.20;99.90;;;;;;5015542;28;20533;-64
2023/12/12 11:03:38;;;;;;;174.50;166.77;;;10.20;99.90;;;;;;5014098;28;20453;-67
2023/12/12 11:06:06;;;;;;;156.07;149.37;;;10.20;99.90;;;;;;5016282;28;20480;-63
2023/12/12 11:08:34;;;;;;;179.87;173.40;;;10.20;99.90;;;;;;5015171;28;20453;-66
2023/12/12 11:11:05;;;;;;;276.43;258.63;;;10.20;99.90;;;;;;5015108;28;20459;-62
2023/12/12 11:13:35;;;;;;;322.43;304.80;;;10.10;99.90;;;;;;5013905;28;20504;-61
2023/12/12 11:16:07;;;;;;;438.63;398.37;;;10.00;99.90;;;;;;5015306;28;20495;-61
2023/12/12 11:18:37;;;;;;;452.67;427.87;;;9.90;99.90;;;;;;5015175;28;20473;-61
2023/12/12 11:21:05;;;;;;;512.20;470.30;;;9.80;99.90;;;;;;5015237;28;20466;-61
2023/12/12 11:23:56;;;;;;;943.17;885.93;;;9.70;99.90;;;;;;5013892;28;20950;-63
2023/12/12 11:26:26;;;;;;;941.57;886.33;;;9.50;99.90;;;;;;5014783;28;20457;-61
2023/12/12 11:28:55;;;;;;;962.90;905.00;;;9.40;99.90;;;;;;5015849;28;20451;-61
2023/12/12 11:31:25;;;;;;;984.47;916.27;;;9.40;99.90;;;;;;5014966;28;20451;-60
2023/12/12 11:34:06;;;;;;;953.43;876.17;;;9.40;99.90;;;;;;5014030;28;20477;-59
2023/12/12 11:36:50;;;;;;;963.17;881.50;;;9.50;99.90;;;;;;5014798;28;20538;-60
2023/12/12 11:39:29;;;;;;;951.77;868.70;;;9.50;99.90;;;;;;5014527;28;20946;-60
2023/12/12 11:41:57;;;;;;;955.17;866.90;;;9.60;99.90;;;;;;5024209;28;20448;-60
2023/12/12 11:44:26;;;;;;;984.20;894.50;;;9.80;99.90;;;;;;5033870;28;20449;-60
2023/12/12 11:46:55;;;;;;;978.83;892.80;;;9.80;99.90;;;;;;5033782;28;20456;-61
2023/12/12 11:49:23;;;;;;;976.63;890.60;;;9.80;99.90;;;;;;5033939;28;21028;-61
2023/12/12 11:51:52;;;;;;;958.03;878.07;;;9.80;99.90;;;;;;5033112;28;20863;-60
2023/12/12 11:54:21;;;;;;;948.67;869.50;;;9.60;99.90;;;;;;5015682;28;20479;-61
2023/12/12 11:56:50;;;;;;;928.50;849.83;;;9.50;99.90;;;;;;5014072;28;21002;-60
2023/12/12 11:59:23;;;;;;;914.90;837.30;;;9.40;99.90;;;;;;5013822;28;20459;-60
2023/12/12 12:01:51;;;;;;;919.93;842.10;;;9.20;99.90;;;;;;5013257;28;20955;-60
2023/12/12 12:04:20;;;;;;;928.50;846.90;;;9.10;99.90;;;;;;5012944;28;20875;-60
2023/12/12 12:06:47;;;;;;;913.83;830.40;;;9.10;99.90;;;;;;5014082;28;20451;-61
2023/12/12 12:09:15;;;;;;;920.07;832.23;;;9.10;99.90;;;;;;5014231;28;20950;-61
2023/12/12 12:11:47;;;;;;;917.67;827.03;;;9.10;99.90;;;;;;5013827;28;20454;-61
2023/12/12 12:14:16;;;;;;;914.07;821.30;;;9.10;99.90;;;;;;5013372;28;20530;-61
2023/12/12 12:16:43;;;;;;;900.10;807.57;;;9.20;99.90;;;;;;5014157;28;20551;-61
2023/12/12 12:19:31;;;;;;;911.47;819.10;;;9.30;99.90;;;;;;5014358;28;20456;-61
2023/12/12 12:22:03;;;;;;;901.43;808.53;;;9.30;99.90;;;;;;5013496;28;20445;-61